createdAt,value
2018-08-24T00:04:59.151Z,65
2018-08-24T00:09:59.184Z,65
2018-08-24T00:14:58.702Z,65
2018-08-24T00:19:59.094Z,65
2018-08-24T00:24:59.004Z,65
2018-08-24T00:29:59.004Z,65
2018-08-24T00:34:59.218Z,65
2018-08-24T00:39:59.340Z,65
2018-08-24T00:44:59.293Z,65
2018-08-24T00:49:58.822Z,65
2018-08-24T00:54:59.136Z,65
2018-08-24T00:59:58.925Z,65
2018-08-24T01:04:59.350Z,65
2018-08-24T01:09:58.970Z,65
2018-08-24T01:14:58.765Z,65
2018-08-24T01:19:59.089Z,65
2018-08-24T01:25:08.714Z,65
2018-08-24T01:29:58.993Z,65
2018-08-24T01:34:58.845Z,65
2018-08-24T01:39:58.996Z,65
2018-08-24T01:44:58.979Z,65
2018-08-24T01:49:58.915Z,65
2018-08-24T01:54:59.571Z,65
2018-08-24T01:59:58.935Z,65
2018-08-24T02:04:59.213Z,65
2018-08-24T02:09:58.829Z,65
2018-08-24T02:14:59.131Z,65
2018-08-24T02:19:58.932Z,65
2018-08-24T02:24:58.793Z,65
2018-08-24T02:29:58.772Z,65
2018-08-24T02:34:58.989Z,65
2018-08-24T02:39:58.874Z,65
2018-08-24T02:44:58.934Z,65
2018-08-24T02:49:58.704Z,65
2018-08-24T02:54:58.835Z,65
2018-08-24T02:59:58.775Z,65
2018-08-24T03:04:59.140Z,65
2018-08-24T03:09:58.873Z,65
2018-08-24T03:14:58.931Z,65
2018-08-24T03:19:58.799Z,65
2018-08-24T03:24:59.092Z,65
2018-08-24T03:29:58.774Z,65
2018-08-24T03:34:58.905Z,65
2018-08-24T03:39:58.641Z,65
2018-08-24T03:44:58.774Z,65
2018-08-24T03:49:58.692Z,65
2018-08-24T03:54:58.812Z,65
2018-08-24T03:59:58.916Z,65
2018-08-24T04:04:58.416Z,65
2018-08-24T04:09:59.010Z,65
2018-08-24T04:14:58.471Z,65
2018-08-24T04:19:58.895Z,65
2018-08-24T04:24:58.708Z,65
2018-08-24T04:29:58.747Z,65
2018-08-24T04:34:58.872Z,65
2018-08-24T04:39:58.816Z,65
2018-08-24T04:44:58.619Z,65
2018-08-24T04:49:58.838Z,65
2018-08-24T04:54:58.700Z,65
2018-08-24T04:59:58.644Z,65
2018-08-24T05:04:58.692Z,65
2018-08-24T05:09:58.681Z,65
2018-08-24T05:14:58.724Z,65
2018-08-24T05:19:58.451Z,65
2018-08-24T05:24:58.445Z,65
2018-08-24T05:29:58.648Z,65
2018-08-24T05:34:58.412Z,65
2018-08-24T05:39:58.704Z,65
2018-08-24T05:44:58.580Z,65
2018-08-24T05:49:58.632Z,65
2018-08-24T05:54:58.397Z,65
2018-08-24T05:59:58.655Z,65
2018-08-24T06:04:58.636Z,65
2018-08-24T06:09:58.595Z,65
2018-08-24T06:14:58.686Z,65
2018-08-24T06:19:58.343Z,65
2018-08-24T06:24:58.386Z,65
2018-08-24T06:29:58.638Z,65
2018-08-24T06:34:58.639Z,65
2018-08-24T06:39:58.352Z,65
2018-08-24T06:44:58.614Z,65
2018-08-24T06:49:58.484Z,65
2018-08-24T06:54:58.503Z,65
2018-08-24T06:59:58.390Z,65
2018-08-24T07:04:58.379Z,65
2018-08-24T07:09:58.280Z,65
2018-08-24T07:14:58.425Z,65
2018-08-24T07:19:58.494Z,65
2018-08-24T07:24:58.521Z,65
2018-08-24T07:29:58.529Z,65
2018-08-24T07:34:58.331Z,65
2018-08-24T07:39:58.272Z,65
2018-08-24T07:44:58.283Z,65
2018-08-24T07:49:58.499Z,65
2018-08-24T07:54:58.170Z,65
2018-08-24T07:59:58.188Z,65
2018-08-24T08:04:58.447Z,65
2018-08-24T08:09:58.143Z,65
2018-08-24T08:14:58.621Z,65
2018-08-24T08:19:58.327Z,65
2018-08-24T08:24:58.211Z,65
2018-08-24T08:29:58.376Z,65
2018-08-24T08:34:58.393Z,65
2018-08-24T08:39:58.406Z,65
2018-08-24T08:44:58.353Z,65
2018-08-24T08:49:58.378Z,65
2018-08-24T08:54:58.389Z,65
2018-08-24T08:59:59.167Z,65
2018-08-24T09:04:58.354Z,65
2018-08-24T09:09:58.183Z,65
2018-08-24T09:14:58.406Z,65
2018-08-24T09:19:58.030Z,65
2018-08-24T09:24:58.049Z,65
2018-08-24T09:29:58.289Z,65
2018-08-24T09:34:58.061Z,65
2018-08-24T09:39:58.196Z,65
2018-08-24T09:44:58.276Z,65
2018-08-24T09:49:58.011Z,65
2018-08-24T09:54:58.257Z,65
2018-08-24T09:59:58.874Z,65
2018-08-24T10:04:58.198Z,65
2018-08-24T10:09:58.024Z,65
2018-08-24T10:14:58.050Z,65
2018-08-24T10:19:58.285Z,65
2018-08-24T10:24:58.300Z,65
2018-08-24T10:29:58.041Z,65
2018-08-24T10:34:58.116Z,65
2018-08-24T10:39:58.146Z,65
2018-08-24T10:44:58.212Z,65
2018-08-24T10:49:57.924Z,65
2018-08-24T10:54:58.331Z,65
2018-08-24T10:59:58.213Z,65
2018-08-24T11:04:58.048Z,65
2018-08-24T11:09:57.940Z,35
2018-08-24T11:14:58.127Z,35
2018-08-24T11:19:58.235Z,34
2018-08-24T11:24:58.085Z,34
2018-08-24T11:29:58.130Z,34
2018-08-24T11:34:57.887Z,34
2018-08-24T11:39:58.210Z,34
2018-08-24T11:44:57.908Z,34
2018-08-24T11:49:58.158Z,34
2018-08-24T11:54:58.011Z,34
2018-08-24T11:59:58.157Z,34
2018-08-24T12:04:57.778Z,34
2018-08-24T12:09:58.294Z,34
2018-08-24T12:14:58.129Z,34
2018-08-24T12:19:58.048Z,33
2018-08-24T12:24:57.850Z,33
2018-08-24T12:29:57.905Z,32
2018-08-24T12:34:57.993Z,32
2018-08-24T12:39:58.075Z,32
2018-08-24T12:44:58.043Z,32
2018-08-24T12:49:57.983Z,32
2018-08-24T12:54:57.773Z,32
2018-08-24T12:59:57.780Z,32
2018-08-24T13:04:57.760Z,32
2018-08-24T13:09:58.102Z,32
2018-08-24T13:14:58.101Z,32
2018-08-24T13:19:57.882Z,32
2018-08-24T13:24:58.003Z,32
2018-08-24T13:29:58.269Z,30
2018-08-24T13:34:57.764Z,30
2018-08-24T13:39:58.048Z,30
2018-08-24T13:44:57.705Z,31
2018-08-24T13:49:57.685Z,31
2018-08-24T13:54:57.665Z,32
2018-08-24T13:59:57.723Z,32
2018-08-24T14:04:57.583Z,32
2018-08-24T14:09:57.891Z,33
2018-08-24T14:14:57.725Z,33
2018-08-24T14:19:58.040Z,33
2018-08-24T14:24:57.757Z,33
2018-08-24T14:29:57.853Z,33
2018-08-24T14:34:57.852Z,33
2018-08-24T14:39:57.882Z,33
2018-08-24T14:44:57.832Z,33
2018-08-24T14:49:57.804Z,33
2018-08-24T14:54:57.885Z,33
2018-08-24T14:59:57.591Z,33
2018-08-24T15:04:57.702Z,33
2018-08-24T15:09:58.095Z,33
2018-08-24T15:14:57.767Z,33
2018-08-24T15:19:57.964Z,33
2018-08-24T15:24:57.934Z,33
2018-08-24T15:29:57.785Z,33
2018-08-24T15:34:57.758Z,33
2018-08-24T15:39:57.684Z,33
2018-08-24T15:44:57.547Z,33
2018-08-24T15:49:57.638Z,33
2018-08-24T15:54:57.645Z,33
2018-08-24T15:59:57.655Z,33
2018-08-24T16:04:57.909Z,33
2018-08-24T16:09:57.585Z,33
2018-08-24T16:14:57.440Z,33
2018-08-24T16:19:57.347Z,33
2018-08-24T16:24:57.460Z,33
2018-08-24T16:29:57.384Z,33
2018-08-24T16:34:57.308Z,33
2018-08-24T16:39:57.369Z,33
2018-08-24T16:44:57.354Z,33
2018-08-24T16:49:57.387Z,33
2018-08-24T16:54:57.309Z,33
2018-08-24T16:59:57.362Z,33
2018-08-24T17:04:57.384Z,33
2018-08-24T17:09:57.439Z,33
2018-08-24T17:14:57.594Z,33
2018-08-24T17:19:57.492Z,34
2018-08-24T17:24:57.237Z,34
2018-08-24T17:29:57.326Z,34
2018-08-24T17:34:57.512Z,34
2018-08-24T17:39:57.292Z,34
2018-08-24T17:44:57.352Z,34
2018-08-24T17:49:57.490Z,34
2018-08-24T17:54:57.358Z,34
2018-08-24T17:59:57.513Z,34
2018-08-24T18:04:57.292Z,34
2018-08-24T18:09:57.515Z,34
2018-08-24T18:14:57.710Z,34
2018-08-24T18:19:57.522Z,34
2018-08-24T18:24:57.432Z,34
2018-08-24T18:29:57.496Z,34
2018-08-24T18:34:57.553Z,34
2018-08-24T18:39:57.646Z,34
2018-08-24T18:44:57.386Z,34
2018-08-24T18:49:57.261Z,34
2018-08-24T18:54:57.274Z,34
2018-08-24T18:59:57.526Z,34
2018-08-24T19:04:57.317Z,34
2018-08-24T19:09:57.284Z,34
2018-08-24T19:14:57.224Z,34
2018-08-24T19:19:57.270Z,34
2018-08-24T19:24:57.394Z,34
2018-08-24T19:29:57.066Z,34
2018-08-24T19:34:57.340Z,34
2018-08-24T19:39:57.384Z,34
2018-08-24T19:44:57.409Z,34
2018-08-24T19:49:57.362Z,34
2018-08-24T19:54:57.335Z,34
2018-08-24T19:59:57.391Z,34
2018-08-24T20:04:57.388Z,34
2018-08-24T20:10:01.385Z,34
2018-08-24T20:14:57.249Z,34
2018-08-24T20:19:57.326Z,46
2018-08-24T20:24:57.290Z,46
2018-08-24T20:29:57.176Z,46
2018-08-24T20:34:57.227Z,46
2018-08-24T20:39:57.634Z,46
2018-08-24T20:44:57.277Z,46
2018-08-24T20:49:57.322Z,46
2018-08-24T20:54:57.044Z,46
2018-08-24T21:00:15.585Z,46
2018-08-24T21:04:56.972Z,46
2018-08-24T21:09:57.267Z,46
2018-08-24T21:14:57.232Z,45
2018-08-24T21:19:57.127Z,45
2018-08-24T21:24:57.057Z,45
2018-08-24T21:29:57.167Z,45
2018-08-24T21:34:57.092Z,45
2018-08-24T21:39:57.068Z,45
2018-08-24T21:44:57.055Z,45
2018-08-24T21:49:57.516Z,45
2018-08-24T21:54:57.036Z,45
2018-08-24T21:59:57.066Z,45
2018-08-24T22:04:57.483Z,45
2018-08-24T22:09:57.743Z,45
2018-08-24T22:14:57.194Z,45
2018-08-24T22:22:33.842Z,45
2018-08-24T22:24:57.069Z,45
2018-08-24T22:29:56.787Z,45
2018-08-24T22:34:56.887Z,45
2018-08-24T22:39:56.748Z,56
2018-08-24T22:44:56.721Z,56
2018-08-24T22:49:56.791Z,56
2018-08-24T22:54:57.004Z,56
2018-08-24T22:59:56.760Z,56
2018-08-24T23:04:57.130Z,56
2018-08-24T23:09:56.980Z,56
2018-08-24T23:14:57.030Z,56
2018-08-24T23:20:00.308Z,56
2018-08-24T23:24:57.051Z,56
2018-08-24T23:29:58.313Z,56
2018-08-24T23:34:57.743Z,56
2018-08-24T23:39:56.816Z,56
2018-08-24T23:44:56.865Z,56
2018-08-24T23:49:56.691Z,56
2018-08-24T23:54:56.857Z,56
2018-08-24T23:59:56.623Z,56
